Time;durP1;ratioP1;P1;durP2;ratioP2;P2;SDS_P1;SDS_P2;PMS_P1;PMS_P2;Temp;Humidity;BMP_temperature;BMP_pressure;BME280_temperature;BME280_humidity;BME280_pressure;Samples;Min_cycle;Max_cycle;Signal;HPM_P1;HPM_P2
2023/08/10 00:09:19;;;;;;;6.8;3.7;;;;;;;14.54;86.7;;;;;
2023/08/10 00:19:19;;;;;;;8.5;4.9;;;;;;;14.58;86.08;;;;;
2023/08/10 00:30:19;;;;;;;8.5;4.9;;;;;;;14.63;85.81;;;;;
2023/08/10 00:40:19;;;;;;;8.5;4.9;;;;;;;14.63;85.78;;;;;
2023/08/10 00:50:19;;;;;;;7.1;3.9;;;;;;;14.67;85.9;;;;;
2023/08/10 01:00:19;;;;;;;7.1;3.9;;;;;;;14.68;85.86;;;;;
2023/08/10 01:11:19;;;;;;;7.1;3.9;;;;;;;14.64;86.04;;;;;
2023/08/10 01:21:19;;;;;;;9.2;5.2;;;;;;;14.7;85.92;;;;;
2023/08/10 01:32:19;;;;;;;9.2;5.2;;;;;;;14.62;86.06;;;;;
2023/08/10 01:43:19;;;;;;;7.7;4.8;;;;;;;14.49;86.72;;;;;
2023/08/10 01:54:19;;;;;;;7.7;4.8;;;;;;;14.53;86.56;;;;;
2023/08/10 02:04:19;;;;;;;7.7;4.8;;;;;;;14.52;86.36;;;;;
2023/08/10 02:14:19;;;;;;;8.9;6.2;;;;;;;14.37;86.97;;;;;
2023/08/10 02:25:19;;;;;;;8.9;6.2;;;;;;;14.3;87.08;;;;;
2023/08/10 02:35:19;;;;;;;8.9;6.2;;;;;;;14.23;87.09;;;;;
2023/08/10 02:46:19;;;;;;;11.6;7.6;;;;;;;14.06;87.83;;;;;
2023/08/10 02:56:19;;;;;;;11.6;7.6;;;;;;;14.09;87.59;;;;;
2023/08/10 03:07:19;;;;;;;11.6;7.6;;;;;;;14.01;87.4;;;;;
2023/08/10 03:18:19;;;;;;;11.9;8.2;;;;;;;13.87;87.86;;;;;
2023/08/10 03:29:19;;;;;;;11.9;8.2;;;;;;;13.87;87.67;;;;;
2023/08/10 03:39:19;;;;;;;11.9;8.2;;;;;;;13.84;87.93;;;;;
2023/08/10 03:50:19;;;;;;;11.6;8.5;;;;;;;13.75;88.51;;;;;
2023/08/10 04:00:21;;;;;;;11.6;8.5;;;;;;;14.03;88.21;;;;;
2023/08/10 04:11:19;;;;;;;11.6;8.5;;;;;;;14.24;88.16;;;;;
2023/08/10 04:22:19;;;;;;;16;10.8;;;;;;;14.28;86.87;;;;;
2023/08/10 04:32:19;;;;;;;16;10.8;;;;;;;14.16;86.99;;;;;
2023/08/10 04:43:19;;;;;;;21.4;15.3;;;;;;;14.39;85.91;;;;;
2023/08/10 04:53:19;;;;;;;21.4;15.3;;;;;;;14.33;86.38;;;;;
2023/08/10 05:04:19;;;;;;;21.4;15.3;;;;;;;14.63;85.03;;;;;
2023/08/10 05:15:19;;;;;;;29.6;22.3;;;;;;;14.98;83.92;;;;;
2023/08/10 05:25:19;;;;;;;29.6;22.3;;;;;;;15.12;82.54;;;;;
2023/08/10 05:35:20;;;;;;;29.6;22.3;;;;;;;15.27;82.67;;;;;
2023/08/10 05:45:19;;;;;;;22.3;18.3;;;;;;;15.24;82.48;;;;;
2023/08/10 05:56:19;;;;;;;22.3;18.3;;;;;;;15.18;81.86;;;;;
2023/08/10 06:06:19;;;;;;;22.3;18.3;;;;;;;15.2;82.03;;;;;
2023/08/10 06:17:19;;;;;;;17.6;14.3;;;;;;;15.5;81.23;;;;;
2023/08/10 06:28:20;;;;;;;17.6;14.3;;;;;;;15.56;80.77;;;;;
2023/08/10 06:38:19;;;;;;;17.6;14.3;;;;;;;15.8;80;;;;;
2023/08/10 06:48:19;;;;;;;21.1;14;;;;;;;15.76;79.18;;;;;
2023/08/10 06:59:19;;;;;;;21.1;14;;;;;;;16.39;77.95;;;;;
2023/08/10 07:10:19;;;;;;;21.1;14;;;;;;;16.49;75.84;;;;;
2023/08/10 07:20:20;;;;;;;19.1;14;;;;;;;16.78;75.91;;;;;
2023/08/10 07:31:20;;;;;;;19.1;14;;;;;;;16.8;76.34;;;;;
2023/08/10 07:41:19;;;;;;;19.1;14;;;;;;;16.78;76.61;;;;;
2023/08/10 07:51:19;;;;;;;19.2;15.9;;;;;;;16.97;75.35;;;;;
2023/08/10 08:02:19;;;;;;;19.2;15.9;;;;;;;17.33;72.23;;;;;
2023/08/10 08:12:19;;;;;;;16.5;12;;;;;;;17.42;72.43;;;;;
2023/08/10 08:22:19;;;;;;;16.5;12;;;;;;;17.89;72.05;;;;;
2023/08/10 08:32:19;;;;;;;16.5;12;;;;;;;18.59;70.95;;;;;
2023/08/10 08:42:19;;;;;;;15;9.9;;;;;;;19.23;66.77;;;;;
2023/08/10 08:53:19;;;;;;;15;9.9;;;;;;;19.66;62.19;;;;;
2023/08/10 09:04:19;;;;;;;15;9.9;;;;;;;19.61;61.94;;;;;
2023/08/10 09:15:19;;;;;;;9.4;6.5;;;;;;;19.72;62.67;;;;;
2023/08/10 09:25:19;;;;;;;9.4;6.5;;;;;;;20.09;63.63;;;;;
2023/08/10 09:36:19;;;;;;;9.4;6.5;;;;;;;21;60.28;;;;;
2023/08/10 09:46:19;;;;;;;8.6;5.2;;;;;;;20.45;59.69;;;;;
2023/08/10 09:57:19;;;;;;;8.6;5.2;;;;;;;21.58;56.97;;;;;
2023/08/10 10:07:19;;;;;;;8.6;5.2;;;;;;;21.19;57.2;;;;;
2023/08/10 10:17:19;;;;;;;8.3;4.9;;;;;;;22.23;55.03;;;;;
2023/08/10 10:27:19;;;;;;;8.3;4.9;;;;;;;22.16;53.73;;;;;
2023/08/10 10:37:19;;;;;;;8.3;4.9;;;;;;;22.84;53.17;;;;;
2023/08/10 10:47:19;;;;;;;7.6;4.2;;;;;;;23.29;51.99;;;;;
2023/08/10 10:58:19;;;;;;;7.6;4.2;;;;;;;23.35;47.15;;;;;
2023/08/10 11:09:20;;;;;;;7.6;4.2;;;;;;;22.29;52.79;;;;;
2023/08/10 11:19:19;;;;;;;9.3;4.3;;;;;;;22.71;52.97;;;;;
2023/08/10 11:29:19;;;;;;;9.3;4.3;;;;;;;21.85;51.75;;;;;
2023/08/10 11:39:20;;;;;;;9.3;4.3;;;;;;;22.15;50.13;;;;;
2023/08/10 11:49:19;;;;;;;6.4;4.1;;;;;;;22.03;52.39;;;;;
2023/08/10 11:59:19;;;;;;;6.4;4.1;;;;;;;22.08;50.63;;;;;
2023/08/10 12:10:19;;;;;;;6.4;4.1;;;;;;;21.68;50.03;;;;;
2023/08/10 12:21:19;;;;;;;6.9;3.3;;;;;;;22.1;47.44;;;;;
2023/08/10 12:31:20;;;;;;;6.9;3.3;;;;;;;22.02;48.91;;;;;
2023/08/10 12:42:19;;;;;;;6.9;3.3;;;;;;;22.18;46.37;;;;;
2023/08/10 12:52:19;;;;;;;6.4;3.7;;;;;;;22.24;50.16;;;;;
2023/08/10 13:03:19;;;;;;;6.4;3.7;;;;;;;22.68;50.13;;;;;
2023/08/10 13:13:19;;;;;;;6.5;2.8;;;;;;;22.75;49.48;;;;;
2023/08/10 13:24:19;;;;;;;6.5;2.8;;;;;;;23.15;45.56;;;;;
2023/08/10 13:35:19;;;;;;;6.5;2.8;;;;;;;23.57;45.06;;;;;
2023/08/10 13:46:19;;;;;;;6.4;2.2;;;;;;;23.5;49.28;;;;;
2023/08/10 13:57:19;;;;;;;6.4;2.2;;;;;;;23.77;45.38;;;;;
2023/08/10 14:07:21;;;;;;;6.4;2.2;;;;;;;24.17;49.57;;;;;
2023/08/10 14:17:19;;;;;;;4.9;2.6;;;;;;;24.07;43.96;;;;;
2023/08/10 14:28:19;;;;;;;4.9;2.6;;;;;;;24.36;42.31;;;;;
2023/08/10 14:38:19;;;;;;;4.9;2.6;;;;;;;24.57;42.61;;;;;
2023/08/10 14:49:19;;;;;;;5.6;2.7;;;;;;;25.47;42.78;;;;;
2023/08/10 15:00:19;;;;;;;;;;;;;;;;;;;;;
2023/08/10 15:11:20;;;;;;;5.6;2.7;;;;;;;25.76;37.85;;;;;
2023/08/10 15:22:19;;;;;;;;;;;;;;;;;;;;;
2023/08/10 15:32:19;;;;;;;;;;;;;;;;;;;;;
2023/08/10 15:42:19;;;;;;;;;;;;;;;;;;;;;
2023/08/10 15:52:19;;;;;;;;;;;;;;;;;;;;;
2023/08/10 16:03:19;;;;;;;4.7;2.4;;;;;;;23.65;42.3;;;;;
2023/08/10 16:13:19;;;;;;;8.8;3.2;;;;;;;22.85;49.62;;;;;
2023/08/10 16:23:19;;;;;;;8.8;3.2;;;;;;;22.42;48.35;;;;;
2023/08/10 16:34:19;;;;;;;8.8;3.2;;;;;;;22;47.19;;;;;
2023/08/10 16:45:19;;;;;;;5.4;2.8;;;;;;;21.56;47.6;;;;;
2023/08/10 16:55:19;;;;;;;5.4;2.8;;;;;;;21.27;49.15;;;;;
2023/08/10 17:05:19;;;;;;;5.4;2.8;;;;;;;21.07;50.85;;;;;
2023/08/10 17:16:20;;;;;;;;;;;;;;;;;;;;;
2023/08/10 17:27:20;;;;;;;7.1;3.9;;;;;;;21.96;56.41;;;;;
2023/08/10 17:37:20;;;;;;;7.1;3.9;;;;;;;21.22;55.95;;;;;
2023/08/10 17:48:20;;;;;;;5.6;2.8;;;;;;;20.12;56.6;;;;;
2023/08/10 17:58:19;;;;;;;5.6;2.8;;;;;;;19.09;60.15;;;;;
2023/08/10 18:08:20;;;;;;;5.6;2.8;;;;;;;18.17;66.44;;;;;
2023/08/10 18:18:20;;;;;;;7.1;4.2;;;;;;;17.49;68.06;;;;;
2023/08/10 18:29:20;;;;;;;7.1;4.2;;;;;;;16.88;69.57;;;;;
2023/08/10 18:40:19;;;;;;;7.1;4.2;;;;;;;16.23;71.92;;;;;
2023/08/10 18:50:20;;;;;;;9.5;5.3;;;;;;;15.75;72.75;;;;;
2023/08/10 19:00:20;;;;;;;9.5;5.3;;;;;;;15.35;73.26;;;;;
2023/08/10 19:11:20;;;;;;;9.5;5.3;;;;;;;15.07;73.72;;;;;
2023/08/10 19:22:20;;;;;;;8;4.7;;;;;;;14.74;76.58;;;;;
2023/08/10 19:32:20;;;;;;;8;4.7;;;;;;;14.48;77.89;;;;;
2023/08/10 19:42:20;;;;;;;8;4.7;;;;;;;14.4;76.82;;;;;
2023/08/10 19:53:20;;;;;;;8.9;5.3;;;;;;;14.26;76.58;;;;;
2023/08/10 20:04:20;;;;;;;8.9;5.3;;;;;;;13.94;78.48;;;;;
2023/08/10 20:14:20;;;;;;;9.9;6.5;;;;;;;13.78;78.38;;;;;
2023/08/10 20:24:20;;;;;;;9.9;6.5;;;;;;;13.66;80.33;;;;;
2023/08/10 20:35:20;;;;;;;9.9;6.5;;;;;;;13.47;81.07;;;;;
2023/08/10 20:46:20;;;;;;;8.6;4.3;;;;;;;13.34;80.27;;;;;
2023/08/10 20:56:20;;;;;;;8.6;4.3;;;;;;;13.23;82.28;;;;;
2023/08/10 21:07:20;;;;;;;8.6;4.3;;;;;;;13.04;82.85;;;;;
2023/08/10 21:18:20;;;;;;;8;5.3;;;;;;;12.93;81.57;;;;;
2023/08/10 21:28:20;;;;;;;8;5.3;;;;;;;12.76;81.41;;;;;
2023/08/10 21:38:20;;;;;;;8;5.3;;;;;;;12.6;81.52;;;;;
2023/08/10 21:49:20;;;;;;;8.4;4;;;;;;;12.47;81.85;;;;;
2023/08/10 21:59:20;;;;;;;8.4;4;;;;;;;12.33;83.22;;;;;
2023/08/10 22:10:20;;;;;;;8.4;4;;;;;;;12.2;84.55;;;;;
2023/08/10 22:20:20;;;;;;;10;5.5;;;;;;;12.16;84.81;;;;;
2023/08/10 22:31:20;;;;;;;10;5.5;;;;;;;12.04;84.49;;;;;
2023/08/10 22:42:20;;;;;;;10;5.5;;;;;;;11.78;85.63;;;;;
2023/08/10 22:52:20;;;;;;;6.6;3.4;;;;;;;11.7;85.24;;;;;
2023/08/10 23:02:20;;;;;;;6.6;3.4;;;;;;;11.57;85.11;;;;;
2023/08/10 23:13:20;;;;;;;6.8;3.7;;;;;;;11.43;85.39;;;;;
2023/08/10 23:24:20;;;;;;;6.8;3.7;;;;;;;11.61;86.96;;;;;
2023/08/10 23:34:20;;;;;;;6.8;3.7;;;;;;;11.68;85.7;;;;;
2023/08/10 23:45:20;;;;;;;6.7;3.6;;;;;;;11.67;85.79;;;;;
2023/08/10 23:55:20;;;;;;;6.7;3.6;;;;;;;11.71;86.95;;;;;
